Time;durP1;ratioP1;P1;durP2;ratioP2;P2;SDS_P1;SDS_P2;PMS_P1;PMS_P2;Temp;Humidity;BMP_temperature;BMP_pressure;BME280_temperature;BME280_humidity;BME280_pressure;Samples;Min_cycle;Max_cycle;Signal;HPM_P1;HPM_P2
2023/02/03 00:02:04;;;;;;;3.35;1.50;;;;;;;4.54;100.00;98513.13;5057058;28;20048;-59
2023/02/03 00:04:31;;;;;;;3.63;1.42;;;;;;;4.66;99.25;98502.78;5058205;28;20115;-59
2023/02/03 00:06:57;;;;;;;1.83;1.23;;;;;;;4.63;99.84;98500.44;5058729;28;20048;-60
2023/02/03 00:09:24;;;;;;;3.45;1.50;;;;;;;4.66;99.94;98492.03;5053962;28;20041;-60
2023/02/03 00:11:51;;;;;;;3.55;1.40;;;;;;;4.60;99.99;98490.91;5059497;28;20076;-59
2023/02/03 00:14:17;;;;;;;4.13;1.50;;;;;;;4.64;100.00;98496.78;5057880;28;20109;-61
2023/02/03 00:16:44;;;;;;;5.90;1.83;;;;;;;4.59;100.00;98500.00;5057063;28;20099;-61
2023/02/03 00:19:10;;;;;;;3.88;2.05;;;;;;;4.61;100.00;98499.81;5056860;28;20041;-60
2023/02/03 00:21:37;;;;;;;4.38;1.80;;;;;;;4.60;100.00;98509.69;5055750;28;20052;-60
2023/02/03 00:24:04;;;;;;;5.00;1.52;;;;;;;4.65;100.00;98482.34;5061701;28;20099;-62
2023/02/03 00:26:30;;;;;;;5.95;2.20;;;;;;;4.58;100.00;98490.28;5057352;28;20448;-60
2023/02/03 00:28:58;;;;;;;3.95;1.70;;;;;;;4.74;100.00;98508.03;5057147;28;20211;-60
2023/02/03 00:31:25;;;;;;;3.05;1.80;;;;;;;4.73;100.00;98503.69;5038121;28;20040;-60
2023/02/03 00:33:56;;;;;;;6.03;1.95;;;;;;;4.69;100.00;98497.84;5055468;28;20058;-59
2023/02/03 00:36:24;;;;;;;5.68;1.38;;;;;;;4.65;100.00;98527.94;5058491;28;20048;-61
2023/02/03 00:38:51;;;;;;;4.93;2.03;;;;;;;4.67;100.00;98507.94;5056201;28;20040;-59
2023/02/03 00:41:19;;;;;;;3.88;2.08;;;;;;;4.56;100.00;98516.44;5055633;28;20044;-62
2023/02/03 00:43:45;;;;;;;4.45;1.73;;;;;;;4.53;100.00;98517.66;5054782;28;20049;-60
2023/02/03 00:46:13;;;;;;;4.88;2.05;;;;;;;4.63;100.00;98509.34;5055587;28;20202;-60
2023/02/03 00:48:39;;;;;;;4.47;1.73;;;;;;;4.60;100.00;98514.25;5056184;28;20044;-60
2023/02/03 00:51:06;;;;;;;6.25;1.90;;;;;;;4.63;100.00;98503.97;5056422;28;20137;-60
2023/02/03 00:53:33;;;;;;;3.78;1.90;;;;;;;4.64;100.00;98497.59;5057616;28;20070;-61
2023/02/03 00:56:00;;;;;;;4.43;1.90;;;;;;;4.64;100.00;98513.69;5055504;28;20044;-61
2023/02/03 00:58:26;;;;;;;4.13;2.00;;;;;;;4.52;100.00;98518.69;5058793;28;20218;-60
2023/02/03 01:00:55;;;;;;;4.28;2.35;;;;;;;4.58;100.00;98510.91;5055935;28;20126;-60
2023/02/03 01:03:23;;;;;;;3.60;1.85;;;;;;;4.59;100.00;98509.88;5055388;28;20051;-60
2023/02/03 01:05:50;;;;;;;2.97;1.60;;;;;;;4.61;100.00;98514.03;5058805;28;20044;-61
2023/02/03 01:08:18;;;;;;;3.95;1.85;;;;;;;4.63;100.00;98528.13;5052963;28;20036;-60
2023/02/03 01:10:44;;;;;;;4.15;1.77;;;;;;;4.73;100.00;98505.53;5057380;28;20041;-60
2023/02/03 01:13:11;;;;;;;3.70;1.70;;;;;;;4.60;100.00;98504.34;5056136;28;20037;-60
2023/02/03 01:15:45;;;;;;;6.43;1.83;;;;;;;4.58;100.00;98492.97;5059547;28;20096;-62
2023/02/03 01:18:11;;;;;;;6.05;2.10;;;;;;;4.53;100.00;98490.00;5057478;28;20120;-60
2023/02/03 01:20:38;;;;;;;4.10;1.70;;;;;;;4.52;100.00;98474.91;5058857;28;20102;-60
2023/02/03 01:23:04;;;;;;;2.97;1.60;;;;;;;4.50;100.00;98480.47;5043369;28;20045;-60
2023/02/03 01:25:30;;;;;;;4.57;2.05;;;;;;;4.53;100.00;98474.75;5056203;28;20561;-61
2023/02/03 01:27:57;;;;;;;4.35;2.00;;;;;;;4.43;100.00;98475.00;5055960;28;20214;-61
2023/02/03 01:30:23;;;;;;;4.03;1.67;;;;;;;4.50;100.00;98483.16;5061009;28;20447;-62
2023/02/03 01:32:51;;;;;;;4.15;1.50;;;;;;;4.49;100.00;98464.59;5053915;28;20040;-60
2023/02/03 01:35:17;;;;;;;5.10;2.45;;;;;;;4.48;100.00;98471.78;5056574;28;20553;-61
2023/02/03 01:37:44;;;;;;;4.00;1.60;;;;;;;4.46;100.00;98465.75;5053769;28;20488;-60
2023/02/03 01:40:11;;;;;;;4.57;1.90;;;;;;;4.51;100.00;98471.44;5060453;28;20408;-61
2023/02/03 01:42:38;;;;;;;3.72;1.70;;;;;;;4.50;100.00;98480.47;5054974;28;20068;-59
2023/02/03 01:45:04;;;;;;;3.50;1.50;;;;;;;4.59;100.00;98477.69;5052798;28;20090;-60
2023/02/03 01:47:39;;;;;;;4.15;1.55;;;;;;;4.51;100.00;98482.16;5053409;28;20040;-62
2023/02/03 01:50:35;;;;;;;5.78;1.80;;;;;;;4.52;100.00;98482.97;5054774;28;20045;-61
2023/02/03 01:53:06;;;;;;;3.53;1.70;;;;;;;4.57;100.00;98487.78;5053984;28;20053;-62
2023/02/03 01:55:36;;;;;;;3.28;1.75;;;;;;;4.55;100.00;98485.28;5062347;28;20044;-62
2023/02/03 01:58:23;;;;;;;2.53;1.08;;;;;;;4.64;100.00;98483.34;5056189;28;20040;-62
2023/02/03 02:00:51;;;;;;;3.95;1.60;;;;;;;4.67;100.00;98477.59;5053946;28;20037;-60
2023/02/03 02:03:19;;;;;;;3.78;1.30;;;;;;;4.64;100.00;98475.31;5057193;28;20053;-61
2023/02/03 02:05:52;;;;;;;2.80;1.35;;;;;;;4.62;100.00;98467.44;5056544;28;20040;-60
2023/02/03 02:08:21;;;;;;;3.00;1.73;;;;;;;4.64;100.00;98459.22;5057137;28;20093;-61
2023/02/03 02:10:49;;;;;;;4.05;1.50;;;;;;;4.59;100.00;98430.25;5057125;28;20527;-62
2023/02/03 02:13:18;;;;;;;3.35;1.38;;;;;;;4.53;100.00;98425.63;5042628;28;20117;-61
2023/02/03 02:16:05;;;;;;;4.32;1.67;;;;;;;4.43;100.00;98407.16;5056113;28;20040;-60
2023/02/03 02:18:39;;;;;;;1.85;1.08;;;;;;;4.49;100.00;98406.41;5052703;28;20116;-61
2023/02/03 02:21:33;;;;;;;2.92;1.33;;;;;;;4.62;100.00;98407.59;5049001;28;20120;-60
2023/02/03 02:24:09;;;;;;;2.83;1.08;;;;;;;4.65;100.00;98416.06;5049270;28;20044;-59
2023/02/03 02:26:41;;;;;;;2.85;1.40;;;;;;;4.64;100.00;98408.25;5054625;28;20534;-61
2023/02/03 02:29:36;;;;;;;4.97;0.93;;;;;;;4.59;100.00;98411.47;5045591;28;20051;-60
2023/02/03 02:32:41;;;;;;;6.10;1.20;;;;;;;4.61;100.00;98419.34;5048087;28;20033;-60
2023/02/03 02:35:29;;;;;;;2.28;1.10;;;;;;;4.64;100.00;98406.38;5052461;28;20132;-60
2023/02/03 02:38:08;;;;;;;3.03;1.17;;;;;;;4.53;100.00;98399.63;5054706;28;20044;-60
2023/02/03 02:40:42;;;;;;;3.80;1.40;;;;;;;4.55;100.00;98383.34;5058543;28;20669;-61
2023/02/03 02:43:19;;;;;;;1.35;0.80;;;;;;;4.57;100.00;98365.22;5054146;28;20051;-60
2023/02/03 02:46:01;;;;;;;2.40;0.95;;;;;;;4.48;100.00;98360.97;5051383;28;20131;-60
2023/02/03 02:49:18;;;;;;;3.03;0.85;;;;;;;4.53;100.00;98396.13;5051296;28;20048;-60
2023/02/03 02:51:47;;;;;;;0.90;0.60;;;;;;;4.68;99.43;98391.56;5050076;28;20052;-60
2023/02/03 02:54:19;;;;;;;2.38;0.90;;;;;;;4.64;99.94;98406.38;5039970;28;20094;-60
2023/02/03 02:56:50;;;;;;;2.57;0.97;;;;;;;4.72;99.73;98418.03;5058613;28;20052;-60
2023/02/03 02:59:16;;;;;;;1.70;0.80;;;;;;;4.64;100.00;98421.66;5057494;28;21013;-60
2023/02/03 03:01:43;;;;;;;1.58;0.82;;;;;;;4.64;100.00;98413.59;5059220;28;20040;-61
2023/02/03 03:04:12;;;;;;;1.50;0.88;;;;;;;4.69;99.43;98403.13;5055455;28;20041;-59
2023/02/03 03:06:45;;;;;;;6.80;1.53;;;;;;;4.64;99.95;98384.91;5060282;28;20051;-61
2023/02/03 03:09:18;;;;;;;1.10;0.70;;;;;;;4.57;100.00;98383.19;5074348;28;20040;-61
2023/02/03 03:11:53;;;;;;;1.38;0.95;;;;;;;4.63;99.68;98380.56;5040789;28;20049;-61
2023/02/03 03:14:22;;;;;;;3.88;1.00;;;;;;;4.48;100.00;98379.75;5056278;28;20530;-59
2023/02/03 03:16:55;;;;;;;1.58;0.90;;;;;;;4.44;100.00;98368.59;5060559;28;20477;-61
2023/02/03 03:19:26;;;;;;;1.95;0.70;;;;;;;4.62;99.29;98378.91;5058394;28;20050;-60
2023/02/03 03:21:58;;;;;;;1.83;0.63;;;;;;;4.59;99.13;98373.91;5057987;28;20088;-60
2023/02/03 03:24:30;;;;;;;2.20;0.93;;;;;;;4.64;99.06;98368.00;5052591;28;20041;-61
2023/02/03 03:27:06;;;;;;;1.10;0.50;;;;;;;4.67;98.37;98376.50;5057269;28;20042;-62
2023/02/03 03:29:42;;;;;;;1.90;0.73;;;;;;;4.73;97.81;98388.31;5051870;28;20102;-60
2023/02/03 03:32:09;;;;;;;1.60;0.70;;;;;;;4.79;97.75;98402.84;5059683;28;20048;-62
2023/02/03 03:34:35;;;;;;;0.70;0.60;;;;;;;4.83;97.63;98417.50;5057885;28;20058;-62
2023/02/03 03:37:12;;;;;;;1.42;0.70;;;;;;;4.75;98.11;98426.50;5055996;28;20255;-61
2023/02/03 03:39:57;;;;;;;1.23;0.60;;;;;;;4.86;97.31;98421.69;5059829;28;20041;-62
2023/02/03 03:42:31;;;;;;;1.25;0.60;;;;;;;4.81;97.88;98415.03;5051601;28;20048;-61
2023/02/03 03:45:37;;;;;;;3.40;1.00;;;;;;;4.73;98.22;98425.88;5057590;28;20052;-62
2023/02/03 03:48:21;;;;;;;1.02;0.57;;;;;;;4.78;98.02;98436.88;5055944;28;20710;-63
2023/02/03 03:50:55;;;;;;;1.48;0.70;;;;;;;4.92;97.33;98432.50;5059940;28;20698;-62
2023/02/03 03:53:24;;;;;;;0.68;0.60;;;;;;;4.88;97.23;98441.13;5053721;28;20063;-60
2023/02/03 03:55:52;;;;;;;3.58;1.30;;;;;;;4.80;97.80;98453.59;5066122;28;20148;-60
2023/02/03 03:58:25;;;;;;;1.52;0.80;;;;;;;4.85;97.62;98462.94;5061160;28;20133;-60
2023/02/03 04:00:55;;;;;;;3.20;1.10;;;;;;;4.79;98.09;98462.69;5057229;28;20066;-61
2023/02/03 04:03:30;;;;;;;1.80;1.00;;;;;;;4.83;98.07;98473.88;5060027;28;20036;-61
2023/02/03 04:05:56;;;;;;;4.40;0.93;;;;;;;4.87;97.94;98464.44;5056704;28;20107;-61
2023/02/03 04:08:23;;;;;;;3.00;0.68;;;;;;;4.89;98.07;98470.44;5056652;28;20467;-60
2023/02/03 04:10:49;;;;;;;2.70;0.80;;;;;;;4.94;98.59;98472.59;5054279;28;20096;-61
2023/02/03 04:13:18;;;;;;;1.55;0.80;;;;;;;4.88;100.00;98465.25;5052877;28;20086;-60
2023/02/03 04:15:45;;;;;;;5.60;0.90;;;;;;;4.77;100.00;98463.91;5057225;28;20064;-61
2023/02/03 04:18:13;;;;;;;1.27;0.70;;;;;;;4.64;100.00;98476.13;5063716;28;20446;-62
2023/02/03 04:20:40;;;;;;;1.30;0.80;;;;;;;4.50;100.00;98479.66;5060485;28;20041;-61
2023/02/03 04:23:07;;;;;;;2.10;1.00;;;;;;;4.50;100.00;98476.97;5055973;28;20041;-61
2023/02/03 04:25:33;;;;;;;2.15;1.02;;;;;;;4.47;100.00;98480.00;5060059;28;20045;-61
2023/02/03 04:28:00;;;;;;;4.22;1.10;;;;;;;4.35;100.00;98468.91;5071298;28;20047;-62
2023/02/03 04:30:27;;;;;;;2.63;1.10;;;;;;;4.39;100.00;98446.09;5063461;28;20124;-61
2023/02/03 04:32:54;;;;;;;1.88;0.90;;;;;;;4.29;100.00;98455.25;5071097;28;20040;-62
2023/02/03 04:35:20;;;;;;;2.38;0.80;;;;;;;4.33;100.00;98452.16;5068418;28;21102;-62
2023/02/03 04:37:47;;;;;;;2.40;0.98;;;;;;;4.43;100.00;98434.78;5061531;28;20045;-60
2023/02/03 04:40:13;;;;;;;1.13;0.60;;;;;;;4.43;100.00;98442.00;5064403;28;20072;-61
2023/02/03 04:42:40;;;;;;;4.45;1.05;;;;;;;4.27;100.00;98433.13;5060888;28;20051;-62
2023/02/03 04:45:09;;;;;;;0.82;0.60;;;;;;;4.31;100.00;98430.09;5066877;28;20040;-60
2023/02/03 04:47:35;;;;;;;2.45;0.90;;;;;;;4.48;100.00;98444.13;5061322;28;20084;-61
2023/02/03 04:50:03;;;;;;;2.92;0.80;;;;;;;4.45;100.00;98441.84;5071611;28;20221;-61
2023/02/03 04:52:29;;;;;;;1.90;0.77;;;;;;;4.53;100.00;98447.06;5057358;28;20585;-61
2023/02/03 04:54:56;;;;;;;1.23;0.80;;;;;;;4.52;100.00;98438.22;5064070;28;20044;-59
2023/02/03 04:57:22;;;;;;;1.27;0.80;;;;;;;4.40;100.00;98437.84;5070438;28;20047;-61
2023/02/03 04:59:49;;;;;;;2.35;1.00;;;;;;;4.46;100.00;98435.44;5072489;28;20062;-60
2023/02/03 05:02:15;;;;;;;1.25;0.80;;;;;;;4.44;100.00;98432.94;5069229;28;20094;-61
2023/02/03 05:04:42;;;;;;;2.17;0.80;;;;;;;4.49;100.00;98443.13;5069350;28;20041;-61
2023/02/03 05:07:08;;;;;;;2.55;0.82;;;;;;;4.35;100.00;98434.06;5065373;28;20044;-60
2023/02/03 05:09:35;;;;;;;2.65;1.10;;;;;;;4.43;100.00;98442.84;5065558;28;20128;-61
2023/02/03 05:12:01;;;;;;;2.05;0.98;;;;;;;4.43;100.00;98450.06;5067142;28;20089;-61
2023/02/03 05:14:28;;;;;;;1.45;0.88;;;;;;;4.43;100.00;98455.44;5066062;28;20039;-61
2023/02/03 05:16:55;;;;;;;3.15;1.40;;;;;;;4.29;100.00;98441.00;5070297;28;20063;-61
2023/02/03 05:19:21;;;;;;;3.35;1.00;;;;;;;4.29;100.00;98463.28;5067732;28;20040;-60
2023/02/03 05:21:48;;;;;;;3.60;1.20;;;;;;;4.42;100.00;98470.66;5064282;28;20121;-60
2023/02/03 05:24:14;;;;;;;4.35;1.38;;;;;;;4.42;100.00;98467.16;5066016;28;20043;-60
2023/02/03 05:26:41;;;;;;;2.72;1.10;;;;;;;4.49;100.00;98456.53;5070483;28;20112;-61
2023/02/03 05:29:08;;;;;;;4.35;1.25;;;;;;;4.52;100.00;98456.16;5068505;28;20290;-62
2023/02/03 05:31:35;;;;;;;2.35;1.10;;;;;;;4.42;100.00;98445.69;5060543;28;20087;-61
2023/02/03 05:34:02;;;;;;;2.58;1.00;;;;;;;4.37;100.00;98450.78;5065305;28;20036;-61
2023/02/03 05:36:28;;;;;;;2.60;1.05;;;;;;;4.30;100.00;98466.78;5061777;28;20543;-61
2023/02/03 05:38:55;;;;;;;2.20;1.15;;;;;;;4.44;100.00;98462.44;5062475;28;20041;-60
2023/02/03 05:44:07;;;;;;;2.88;1.10;;;;;;;4.55;100.00;98450.41;5070022;28;20470;-60
2023/02/03 05:46:33;;;;;;;3.33;1.52;;;;;;;4.54;100.00;98454.13;5068572;28;20040;-60
2023/02/03 05:49:00;;;;;;;4.25;1.40;;;;;;;4.54;100.00;98470.22;5056979;28;20075;-61
2023/02/03 05:51:27;;;;;;;2.72;1.20;;;;;;;4.53;100.00;98447.91;5062147;28;20554;-61
2023/02/03 05:53:53;;;;;;;2.33;1.23;;;;;;;4.46;100.00;98444.31;5064102;28;20071;-60
2023/02/03 05:56:20;;;;;;;3.35;1.20;;;;;;;4.52;100.00;98448.09;5074418;28;20047;-61
2023/02/03 05:58:47;;;;;;;4.13;1.30;;;;;;;4.34;100.00;98430.53;5073111;28;20071;-60
2023/02/03 06:01:13;;;;;;;5.95;1.20;;;;;;;4.45;100.00;98431.91;5066140;28;20157;-61
2023/02/03 06:03:39;;;;;;;3.28;1.30;;;;;;;4.59;100.00;98419.53;5076087;28;20499;-60
2023/02/03 06:06:07;;;;;;;3.25;1.15;;;;;;;4.73;100.00;98425.03;5072176;28;20466;-60
2023/02/03 06:08:34;;;;;;;2.42;1.17;;;;;;;4.65;100.00;98434.03;5066411;28;20264;-61
2023/02/03 06:11:00;;;;;;;3.25;1.10;;;;;;;4.75;100.00;98439.94;5064864;28;20040;-59
2023/02/03 06:13:27;;;;;;;3.30;1.20;;;;;;;4.73;100.00;98436.63;5057341;28;20071;-60
2023/02/03 06:15:54;;;;;;;2.85;1.00;;;;;;;4.58;100.00;98420.53;5065351;28;20042;-60
2023/02/03 06:18:20;;;;;;;3.20;1.15;;;;;;;4.61;100.00;98419.34;5066474;28;20376;-60
2023/02/03 06:20:47;;;;;;;5.40;1.25;;;;;;;4.62;100.00;98424.53;5068749;28;20052;-60
2023/02/03 06:23:16;;;;;;;2.45;1.13;;;;;;;4.58;100.00;98415.19;5067579;28;20072;-60
2023/02/03 06:25:42;;;;;;;2.58;1.25;;;;;;;4.60;100.00;98420.38;5062906;28;20143;-60
2023/02/03 06:28:09;;;;;;;3.33;1.38;;;;;;;4.77;100.00;98426.34;5065122;28;20043;-60
2023/02/03 06:30:36;;;;;;;2.75;1.10;;;;;;;4.80;100.00;98439.38;5070282;28;20187;-62
2023/02/03 06:33:02;;;;;;;3.65;1.40;;;;;;;4.93;100.00;98438.69;5068083;28;20133;-61
2023/02/03 06:35:29;;;;;;;3.55;1.27;;;;;;;4.76;100.00;98449.63;5059651;28;20044;-62
2023/02/03 06:37:55;;;;;;;2.70;1.38;;;;;;;4.73;100.00;98451.88;5064507;28;20044;-60
2023/02/03 06:40:22;;;;;;;3.63;1.08;;;;;;;4.55;100.00;98437.00;5064088;28;20101;-59
2023/02/03 06:42:50;;;;;;;4.22;1.30;;;;;;;4.54;100.00;98444.22;5074766;28;20051;-60
2023/02/03 06:45:16;;;;;;;2.67;1.20;;;;;;;4.54;100.00;98429.97;5063615;28;20586;-60
2023/02/03 06:47:44;;;;;;;3.40;1.25;;;;;;;4.50;100.00;98415.28;5060129;28;20049;-62
2023/02/03 06:50:13;;;;;;;3.80;1.67;;;;;;;4.47;100.00;98421.00;5063061;28;20044;-60
2023/02/03 06:52:40;;;;;;;3.15;1.15;;;;;;;4.59;100.00;98414.16;5060420;28;20101;-60
2023/02/03 06:55:06;;;;;;;3.85;1.30;;;;;;;4.32;100.00;98413.81;5063469;28;20041;-60
2023/02/03 06:57:33;;;;;;;4.60;1.52;;;;;;;4.42;100.00;98408.16;5068723;28;20491;-61
2023/02/03 06:59:59;;;;;;;2.40;1.08;;;;;;;4.60;100.00;98417.69;5062984;28;20202;-60
2023/02/03 07:02:26;;;;;;;3.53;1.70;;;;;;;4.56;100.00;98417.19;5067745;28;20043;-59
2023/02/03 07:04:52;;;;;;;6.90;2.60;;;;;;;4.55;100.00;98415.56;5061954;28;20651;-60
2023/02/03 07:07:19;;;;;;;6.35;1.70;;;;;;;4.51;100.00;98419.63;5061096;28;20573;-60
2023/02/03 07:09:45;;;;;;;4.60;1.20;;;;;;;4.58;100.00;98419.69;5066450;28;20567;-61
2023/02/03 07:12:12;;;;;;;1.95;1.05;;;;;;;4.67;100.00;98424.78;5067602;28;20515;-60
2023/02/03 07:14:38;;;;;;;2.08;1.15;;;;;;;4.63;100.00;98412.75;5058762;28;20694;-60
2023/02/03 07:17:05;;;;;;;2.80;1.02;;;;;;;4.59;100.00;98408.78;5068614;28;20040;-60
2023/02/03 07:19:32;;;;;;;2.67;1.10;;;;;;;4.54;100.00;98405.84;5060606;28;20064;-59
2023/02/03 07:21:59;;;;;;;4.63;1.40;;;;;;;4.48;100.00;98406.56;5069608;28;20257;-61
2023/02/03 07:24:25;;;;;;;4.60;1.30;;;;;;;4.54;100.00;98400.47;5068610;28;20044;-61
2023/02/03 07:26:52;;;;;;;3.75;0.80;;;;;;;4.72;100.00;98399.25;5065662;28;20043;-60
2023/02/03 07:29:18;;;;;;;2.40;0.90;;;;;;;4.77;100.00;98391.44;5039159;28;20076;-59
2023/02/03 07:31:45;;;;;;;2.90;0.90;;;;;;;4.75;100.00;98388.13;5030149;28;20036;-59
2023/02/03 07:34:12;;;;;;;1.92;0.77;;;;;;;4.82;100.00;98397.06;5060105;28;20400;-61
2023/02/03 07:36:38;;;;;;;2.78;0.73;;;;;;;4.78;100.00;98402.00;5058941;28;20036;-61
2023/02/03 07:39:05;;;;;;;1.92;0.80;;;;;;;4.80;100.00;98408.00;5054563;28;20057;-61
2023/02/03 07:41:31;;;;;;;1.40;0.80;;;;;;;4.90;100.00;98426.47;5067382;28;20047;-60
2023/02/03 07:43:58;;;;;;;1.25;0.80;;;;;;;4.79;100.00;98430.50;5065516;28;20101;-60
2023/02/03 07:46:24;;;;;;;2.63;1.00;;;;;;;4.77;100.00;98437.91;5066211;28;20039;-60
2023/02/03 07:48:51;;;;;;;1.55;0.55;;;;;;;4.79;100.00;98432.34;5065333;28;20178;-61
2023/02/03 07:51:17;;;;;;;2.15;0.93;;;;;;;4.73;100.00;98447.34;5073875;28;20530;-60
2023/02/03 07:53:44;;;;;;;0.80;0.57;;;;;;;4.79;100.00;98443.09;5071902;28;20511;-59
2023/02/03 07:56:11;;;;;;;2.38;0.90;;;;;;;4.84;100.00;98450.56;5067586;28;20456;-61
2023/02/03 07:58:38;;;;;;;1.77;0.80;;;;;;;4.66;100.00;98458.00;5064776;28;20055;-61
2023/02/03 08:01:15;;;;;;;2.30;0.93;;;;;;;4.84;100.00;98461.28;5065726;28;20040;-61
2023/02/03 08:03:42;;;;;;;4.03;0.80;;;;;;;4.81;100.00;98476.75;5072380;28;20131;-60
2023/02/03 08:06:09;;;;;;;2.05;0.85;;;;;;;4.79;100.00;98469.94;5069329;28;20344;-61
2023/02/03 08:08:35;;;;;;;1.50;0.57;;;;;;;4.80;100.00;98477.75;5066864;28;20049;-60
2023/02/03 08:11:02;;;;;;;1.95;0.65;;;;;;;4.78;100.00;98468.25;5064438;28;20534;-60
2023/02/03 08:13:29;;;;;;;3.22;0.80;;;;;;;4.84;100.00;98472.03;5066854;28;20036;-60
2023/02/03 08:15:55;;;;;;;1.45;0.73;;;;;;;4.80;100.00;98477.75;5063055;28;20149;-61
2023/02/03 08:18:22;;;;;;;0.88;0.60;;;;;;;4.88;100.00;98476.00;5062540;28;20119;-60
2023/02/03 08:20:48;;;;;;;1.83;0.73;;;;;;;4.79;100.00;98475.28;5063159;28;20048;-59
2023/02/03 08:23:15;;;;;;;2.05;0.85;;;;;;;4.89;100.00;98496.44;5068933;28;20037;-60
2023/02/03 08:25:41;;;;;;;1.45;0.70;;;;;;;4.95;100.00;98491.16;5071077;28;20040;-61
2023/02/03 08:28:08;;;;;;;1.50;0.70;;;;;;;4.94;100.00;98488.69;5066706;28;20050;-61
2023/02/03 08:30:35;;;;;;;2.05;0.80;;;;;;;5.04;100.00;98481.16;5068677;28;20511;-62
2023/02/03 08:33:01;;;;;;;0.98;0.70;;;;;;;4.98;100.00;98486.44;5075624;28;20045;-60
2023/02/03 08:35:28;;;;;;;1.80;0.93;;;;;;;4.98;100.00;98486.44;5064060;28;20040;-59
2023/02/03 08:37:55;;;;;;;2.42;0.93;;;;;;;4.99;100.00;98469.31;5061946;28;20041;-62
2023/02/03 08:40:21;;;;;;;4.47;1.10;;;;;;;5.05;100.00;98492.75;5067689;28;20123;-59
2023/02/03 08:42:48;;;;;;;1.45;0.80;;;;;;;5.04;100.00;98496.41;5065114;28;20040;-63
2023/02/03 08:45:14;;;;;;;3.13;1.00;;;;;;;4.97;100.00;98501.72;5070018;28;20151;-60
2023/02/03 08:47:40;;;;;;;2.45;1.08;;;;;;;5.16;100.00;98519.09;5062761;28;20464;-61
2023/02/03 08:50:08;;;;;;;3.55;1.13;;;;;;;5.14;100.00;98505.03;5070599;28;20748;-61
2023/02/03 08:52:34;;;;;;;3.30;1.02;;;;;;;5.10;100.00;98484.94;5066200;28;20071;-61
2023/02/03 08:55:01;;;;;;;1.38;0.80;;;;;;;5.05;100.00;98484.69;5064163;28;20700;-61
2023/02/03 08:57:32;;;;;;;2.80;1.33;;;;;;;4.98;100.00;98486.44;5063426;28;20048;-59
2023/02/03 08:59:58;;;;;;;2.38;1.00;;;;;;;5.02;100.00;98490.41;5064735;28;20070;-61
2023/02/03 09:02:25;;;;;;;4.22;1.50;;;;;;;5.00;100.00;98490.59;5056786;28;20458;-59
2023/02/03 09:04:51;;;;;;;2.08;1.17;;;;;;;5.01;100.00;98489.59;5069007;28;20256;-60
2023/02/03 09:07:18;;;;;;;1.73;0.80;;;;;;;5.10;100.00;98462.63;5059050;28;20497;-59
2023/02/03 09:09:45;;;;;;;2.13;1.10;;;;;;;5.17;100.00;98474.28;5071192;28;20116;-61
2023/02/03 09:12:11;;;;;;;1.27;0.65;;;;;;;5.13;100.00;98489.09;5072166;28;20597;-59
2023/02/03 09:14:38;;;;;;;1.52;0.75;;;;;;;5.17;100.00;98490.38;5074689;28;20326;-59
2023/02/03 09:17:07;;;;;;;2.30;0.68;;;;;;;5.24;100.00;98464.44;5066572;28;20450;-60
2023/02/03 09:19:34;;;;;;;1.92;0.90;;;;;;;5.26;100.00;98473.13;5063252;28;20044;-59
2023/02/03 09:22:02;;;;;;;0.55;0.40;;;;;;;5.24;100.00;98467.13;5068033;28;20111;-59
2023/02/03 09:24:29;;;;;;;3.30;1.27;;;;;;;5.33;100.00;98465.16;5059243;28;20057;-59
2023/02/03 09:26:56;;;;;;;3.28;1.40;;;;;;;5.30;100.00;98468.22;5064463;28;20040;-61
2023/02/03 09:29:22;;;;;;;2.42;0.85;;;;;;;5.37;100.00;98476.31;5062071;28;20484;-61
2023/02/03 09:31:52;;;;;;;7.03;3.40;;;;;;;5.33;100.00;98465.16;5064639;28;20045;-60
2023/02/03 09:34:20;;;;;;;3.78;1.33;;;;;;;5.37;100.00;98462.91;5061373;28;20113;-59
2023/02/03 09:36:47;;;;;;;2.30;1.00;;;;;;;5.32;100.00;98452.75;5062241;28;20119;-61
2023/02/03 09:39:14;;;;;;;2.80;0.73;;;;;;;5.31;100.00;98470.72;5061498;28;20070;-61
2023/02/03 09:42:25;;;;;;;2.67;1.33;;;;;;;5.41;100.00;98473.09;5065647;28;20048;-61
2023/02/03 09:45:00;;;;;;;5.22;2.03;;;;;;;5.43;100.00;98475.59;5068532;28;20098;-61
2023/02/03 09:47:31;;;;;;;1.67;0.50;;;;;;;5.62;100.00;98478.66;5064411;28;20036;-59
2023/02/03 09:50:00;;;;;;;0.93;0.50;;;;;;;5.65;100.00;98486.31;5060709;28;20120;-60
2023/02/03 09:52:31;;;;;;;2.13;0.60;;;;;;;5.59;100.00;98475.34;5065383;28;20563;-61
2023/02/03 09:55:25;;;;;;;14.33;7.10;;;;;;;5.54;100.00;98468.88;5063213;28;20043;-60
2023/02/03 09:58:03;;;;;;;1.77;0.70;;;;;;;5.73;100.00;98464.69;5067063;28;20290;-59
2023/02/03 10:00:35;;;;;;;2.40;1.00;;;;;;;5.72;100.00;98453.09;5064117;28;20102;-60
2023/02/03 10:03:07;;;;;;;4.35;1.63;;;;;;;5.81;100.00;98455.66;5044590;28;20123;-60
2023/02/03 10:06:01;;;;;;;2.35;0.90;;;;;;;5.76;100.00;98445.50;5058541;28;20048;-59
2023/02/03 10:09:07;;;;;;;1.95;0.77;;;;;;;5.84;100.00;98436.47;5061389;28;20051;-62
2023/02/03 10:11:39;;;;;;;0.93;0.47;;;;;;;5.98;100.00;98448.97;5062628;28;20062;-62
2023/02/03 10:14:18;;;;;;;2.88;1.40;;;;;;;5.84;100.00;98445.38;5056365;28;20048;-60
2023/02/03 10:17:05;;;;;;;1.60;0.68;;;;;;;5.81;100.00;98475.31;5054031;28;20060;-60
2023/02/03 10:19:50;;;;;;;8.00;2.78;;;;;;;5.95;100.00;98475.41;5063588;28;20051;-59
2023/02/03 10:22:20;;;;;;;1.35;0.60;;;;;;;5.86;99.46;98483.63;5037437;28;20526;-60
2023/02/03 10:25:29;;;;;;;2.17;0.93;;;;;;;5.72;100.00;98489.91;5061189;28;20102;-58
2023/02/03 10:28:00;;;;;;;2.35;0.70;;;;;;;5.69;99.69;98483.06;5022903;28;20048;-62
2023/02/03 10:30:33;;;;;;;1.27;0.73;;;;;;;5.73;100.00;98478.13;5055324;28;20052;-61
2023/02/03 10:33:12;;;;;;;0.88;0.50;;;;;;;5.75;100.00;98473.38;5060994;28;20042;-61
2023/02/03 10:35:51;;;;;;;0.98;0.60;;;;;;;5.88;98.40;98477.22;5059223;28;20079;-60
2023/02/03 10:38:31;;;;;;;1.27;0.60;;;;;;;5.89;97.77;98476.22;5058461;28;20048;-59
2023/02/03 10:40:57;;;;;;;2.60;0.90;;;;;;;6.06;98.64;98471.41;5060605;28;20507;-62
2023/02/03 10:46:10;;;;;;;1.65;0.73;;;;;;;6.01;97.87;98447.75;5060777;28;20099;-59
2023/02/03 10:48:37;;;;;;;4.20;1.27;;;;;;;5.82;97.94;98446.59;5060705;28;20068;-62
2023/02/03 10:51:07;;;;;;;6.45;2.08;;;;;;;5.83;98.83;98432.13;5063498;28;20052;-60
2023/02/03 10:53:35;;;;;;;6.38;2.65;;;;;;;6.07;98.35;98421.97;5064654;28;20040;-62
2023/02/03 10:56:09;;;;;;;2.15;0.80;;;;;;;6.18;97.54;98415.22;5057894;28;20484;-59
2023/02/03 10:58:37;;;;;;;1.45;0.60;;;;;;;6.32;96.73;98405.34;5056156;28;20040;-62
2023/02/03 11:01:10;;;;;;;1.23;0.60;;;;;;;6.35;95.78;98424.63;5057260;28;20684;-59
2023/02/03 11:03:39;;;;;;;1.95;0.60;;;;;;;6.39;94.77;98438.50;5062792;28;20120;-60
2023/02/03 11:06:09;;;;;;;1.08;0.50;;;;;;;6.32;95.92;98429.56;5061199;28;20500;-61
2023/02/03 11:08:41;;;;;;;0.80;0.40;;;;;;;6.31;94.63;98426.06;5069422;28;20040;-59
2023/02/03 11:11:13;;;;;;;1.38;0.55;;;;;;;6.35;95.56;98424.63;5063788;28;20107;-60
2023/02/03 11:13:40;;;;;;;;;;;;;;;6.30;95.46;98420.88;5067403;28;20068;-56
2023/02/03 11:16:17;;;;;;;0.55;0.38;;;;;;;6.28;93.96;98410.31;5065065;28;19921;-60
2023/02/03 11:19:15;;;;;;;1.05;0.50;;;;;;;6.30;93.70;98418.19;5070466;28;20496;-62
2023/02/03 11:21:48;;;;;;;0.88;0.43;;;;;;;6.50;92.93;98413.72;5072711;28;20496;-62
2023/02/03 11:24:20;;;;;;;1.33;0.32;;;;;;;6.57;91.24;98424.53;5068702;28;20718;-60
2023/02/03 11:26:56;;;;;;;2.05;0.60;;;;;;;6.51;91.04;98411.88;5071085;28;20660;-61
2023/02/03 11:29:27;;;;;;;0.68;0.45;;;;;;;6.54;91.72;98416.88;5062210;28;21518;-61
2023/02/03 11:31:56;;;;;;;1.20;0.40;;;;;;;6.43;94.11;98396.75;5065702;28;20402;-61
2023/02/03 11:34:36;;;;;;;1.60;0.73;;;;;;;6.47;93.77;98398.00;5062227;28;20044;-62
2023/02/03 11:37:26;;;;;;;0.22;0.22;;;;;;;6.33;94.11;98390.88;5069747;28;20101;-60
2023/02/03 11:40:09;;;;;;;0.95;0.50;;;;;;;6.38;94.83;98400.00;5060444;28;20674;-60
2023/02/03 11:42:42;;;;;;;1.55;0.70;;;;;;;6.34;94.51;98403.31;5062937;28;20119;-61
2023/02/03 11:45:23;;;;;;;2.35;0.90;;;;;;;6.41;95.22;98379.94;5070965;28;20048;-62
2023/02/03 11:47:55;;;;;;;0.55;0.38;;;;;;;6.44;93.09;98374.19;5069219;28;20561;-61
2023/02/03 11:50:32;;;;;;;1.17;0.60;;;;;;;6.38;94.03;98375.00;5062433;28;20622;-61
2023/02/03 11:53:25;;;;;;;2.92;1.20;;;;;;;6.29;93.26;98349.25;5061926;28;20138;-60
2023/02/03 11:56:04;;;;;;;0.95;0.40;;;;;;;6.22;92.63;98351.94;5063532;28;20079;-60
2023/02/03 11:58:49;;;;;;;0.85;0.50;;;;;;;6.24;92.46;98339.94;5064290;28;20073;-59